Ana Sayfa
METAR-TAF:

METAR-TAF

Havaalanları :

Wharton, Teksas, Amerika Birleşik Devletleri

Enlem: 29-15-15N, Boylam: 096-09-15W, yükseklik: 31 m

Güncel hava durumu gözlemi

Rapor saat 09:15 UTC de 29 dakika önce yapıldı.
Rüzgar doğu/güneydoğudan 4 kt
Sıcaklık 24°C
Nem 89%
Basınç 1017 hPa
Görüş mesafesi: 16.1 km
Açık gökyüzü

METAR: KARM 260915Z AUTO 12004KT 10SM CLR 24/22 A3003 RMK AO2 T02360220

Saat: 04:44 (09:44 UTC)


TAF: eksik

4.000'den fazla havaalanı için hava durumu gözlemleri ve tahminleri (METAR ve TAF raporları).

Kullanılabilir istasyonlar harita üzerinde sarı ve kırmızı noktalarla gösterilir.

İstasyonun adını görmek için fareyi noktanın üzerinde gezdirin.

Sonrasında hava gözlem ve tahminlerini görmek için tıklayın.

Haritayı değiştirmek için: yaklaştırmak için siyah artı işaretli yeşil düğmeye ve uzaklaştırmak için de eksi işaretli düğmeye hızla tıklayın; bitişik haritalar için yeşil okları kullanın.


METAR-TAF: